Latest Coastal Weather Observations for Devonport Airport

IDV60701

Issued at 1:41 pm EDT Tuesday 6 December 2016 (issued every 10 minutes, with the page automatically refreshed every 10 minutes)

About coastal observations | Map of coastal stations | Coastal observations for VIC | Marine services | Other Formats
Station Details ID: 091126 Name: DEVONPORT AIRPORT Lat: -41.17 Lon: 146.43 Height: 8.0 m
Data from the previous 72 hours. | See also: Recent months at Devonport Airport
Date/Time
EDT
Temp
°C
Wind Pressure Rain since
9am
mm
Weather Cloud Vis
km
Sea
Height
m
Swell
Dir  Spd
kts
Gust
kts
hPa Trend Height
m
Period
s
Dir
06/01:30pm 19.4 WNW 19 27 1009.2 - 0.0 - Partly cloudy 10 - - - -
06/01:00pm 18.8 WNW 20 26 1009.3 - 0.0 - - 10 - - - -
06/12:30pm 18.9 W 18 23 1009.4 - 0.0 - Partly cloudy 10 - - - -
06/12:00pm 18.4 W 16 23 1009.6 - 0.0 - Mostly cloudy 10 - - - -
06/11:30am 17.2 N 7 13 1009.7 - 0.0 - Partly cloudy 10 - - - -
06/11:00am 16.3 NNW 11 13 1010.1 - 0.0 - Partly cloudy 10 - - - -
06/10:30am 15.1 N 9 11 1010.1 - 0.0 - Partly cloudy 10 - - - -
06/10:00am 14.2 N 7 10 1009.9 - 0.0 - - 10 - - - -
06/09:30am 13.8 NNW 7 9 1010.6 - 0.0 - - 10 - - - -
06/09:00am 13.6 SW 2 5 1010.7 - 0.0 - - 10 - - - -
06/08:30am 12.5 W 5 7 1011.0 - 0.0 - - 10 - - - -
06/08:00am 11.8 WSW 5 6 1010.6 - 0.0 - - 10 - - - -
06/07:30am 11.6 WSW 6 8 1011.0 - 0.0 - Partly cloudy 10 - - - -
06/07:00am 10.4 SSW 5 6 1010.5 - 0.0 - Partly cloudy 10 - - - -
06/06:30am 8.7 S 5 7 1010.5 - 0.0 - - 10 - - - -
06/06:00am 8.2 S 7 9 1010.4 - 0.0 - - 10 - - - -
06/05:30am 8.7 S 7 9 1010.1 - 0.0 - - 10 - - - -
06/05:00am 9.3 ESE 6 7 1009.8 - 0.0 - - 10 - - - -
06/04:30am 10.0 ENE 7 9 1009.8 - 0.0 - - 10 - - - -
06/04:00am 11.0 NE 8 11 1009.9 - 0.0 - - 10 - - - -
06/03:30am 11.4 NE 11 14 1010.4 - 0.0 - - 10 - - - -
06/03:00am 10.5 NE 7 10 1010.7 - 0.0 - - 10 - - - -
06/02:30am 10.1 E 7 9 1010.7 - 0.0 - - 10 - - - -
06/02:00am 9.7 ESE 7 9 1010.8 - 0.0 - - 10 - - - -
06/01:30am 9.4 SE 6 7 1010.7 - 0.0 - - 10 - - - -
06/01:00am 9.2 ESE 5 7 1010.9 - 0.0 - - 10 - - - -
06/12:30am 9.1 ESE 5 6 1011.0 - 0.0 - - 10 - - - -
06/12:00am 9.6 SE 4 5 1011.0 - 0.0 - - 10 - - - -
 
Date/Time
EDT
Temp
°C
Wind Pressure Rain since
9am
mm
Weather Cloud Vis
km
Sea
Height
m
Swell
Dir  Spd
kts
Gust
kts
hPa Trend Height
m
Period
s
Dir
05/11:30pm 10.8 WSW 3 5 1011.3 - 0.0 - - 10 - - - -
05/11:00pm 12.1 W 4 5 1011.5 - 0.0 - - 10 - - - -
05/10:30pm 12.3 W 8 10 1011.5 - 0.0 - - 10 - - - -
05/10:00pm 13.6 WNW 10 13 1010.7 - 0.0 - - 10 - - - -
05/09:30pm 14.1 WNW 10 13 1010.2 - 0.0 - - 10 - - - -
05/09:00pm 14.9 WNW 11 13 1010.1 - 0.0 - - 10 - - - -
05/08:30pm 15.6 WNW 9 12 1010.0 - 0.0 - - 10 - - - -
05/08:00pm 16.8 WNW 12 16 1009.9 - 0.0 - - 10 - - - -
05/07:30pm 18.4 W 11 17 1009.6 - 0.0 - - 10 - - - -
05/07:00pm 18.8 WSW 14 18 1008.3 - 0.0 - - 10 - - - -
05/06:30pm 19.6 WSW 12 16 1008.2 - 0.0 - - 10 - - - -
05/06:00pm 19.8 W 12 16 1008.5 - 0.0 - - 10 - - - -
05/05:30pm 20.5 W 13 17 1008.6 - 0.0 - - 10 - - - -
05/05:00pm 20.9 WSW 11 17 1008.3 - 0.0 - - 10 - - - -
05/04:30pm 21.0 W 13 16 1007.9 - 0.0 - - 10 - - - -
05/04:00pm 20.9 WSW 14 19 1007.5 - 0.0 - - 10 - - - -
05/03:30pm 21.4 WSW 17 23 1007.4 - 0.0 - - 10 - - - -
05/03:00pm 21.5 WSW 12 16 1007.4 - 0.0 - Mostly clear 10 - - - -
05/02:30pm 20.3 WNW 18 23 1007.2 - 0.0 - Partly cloudy 10 - - - -
05/02:00pm 19.9 WNW 17 23 1007.1 - 0.0 - Partly cloudy 10 - - - -
05/01:30pm 19.1 WNW 16 21 1007.1 - 0.0 - - 10 - - - -
05/01:00pm 19.9 WNW 19 26 1006.5 - 0.0 - Partly cloudy 10 - - - -
05/12:30pm 18.5 WNW 17 23 1006.9 - 0.0 - Partly cloudy 10 - - - -
05/12:00pm 19.5 W 18 24 1006.7 - 0.0 - Mostly clear 10 - - - -
05/11:46am 19.2 WNW 18 29 1006.3 - 0.0 - Partly cloudy 10 - - - -
05/11:30am 18.2 W 16 22 1006.4 - 0.0 - - 10 - - - -
05/11:00am 18.4 WNW 17 22 1006.2 - 0.0 - Partly cloudy 10 - - - -
05/10:30am 17.2 WNW 18 23 1006.0 - 0.0 - Partly cloudy 10 - - - -
05/10:00am 16.7 WNW 17 21 1006.2 - 0.0 - Cloudy 10 - - - -
05/09:30am 16.3 NW 15 21 1006.0 - 0.0 - Partly cloudy 10 - - - -
05/09:00am 16.8 W 15 19 1005.8 - 14.8 - - 10 - - - -
05/08:30am 16.1 W 17 25 1005.4 - 14.8 - - 10 - - - -
05/08:00am 15.4 W 16 24 1005.2 - 14.8 - - 10 - - - -
05/07:30am 15.0 WNW 18 24 1004.1 - 14.8 - - 10 - - - -
05/07:00am 15.2 WNW 17 20 1003.4 - 14.8 - - 10 - - - -
05/06:30am 15.5 W 12 16 1002.6 - 14.8 - - 10 - - - -
05/06:00am 15.1 W 9 12 1001.6 - 14.8 - - 10 - - - -
05/05:30am 15.5 W 12 17 1000.9 - 14.8 - Partly cloudy 10 - - - -
05/05:00am 15.8 WNW 13 16 999.8 - 14.8 - Partly cloudy - - - - -
05/04:59am 15.8 WNW 13 16 999.8 - 14.8 - Partly cloudy - - - - -
05/04:30am 16.0 WNW 14 17 999.3 - 14.8 - Cloudy - - - - -
05/04:00am 16.2 NW 16 21 999.4 - 14.8 - Cloudy - - - - -
05/03:30am 16.2 NW 13 17 999.4 - 14.8 - Partly cloudy - - - - -
05/03:12am 16.0 NNW 9 11 999.9 - 13.0 - Partly cloudy - - - - -
05/03:08am 16.0 N 8 10 999.6 - 12.2 - Partly cloudy - - - - -
05/03:00am 16.0 N 8 10 999.6 - 9.6 Rain Cloudy - - - - -
05/02:37am 15.9 N 9 19 1000.1 - 7.4 - Partly cloudy 4 - - - -
05/02:30am 16.1 NNE 8 19 1000.2 - 5.8 - Partly cloudy 4 - - - -
05/02:20am 15.8 NNE 8 10 1000.5 - 4.0 - Partly cloudy 5 - - - -
05/02:00am 15.9 NE 8 10 999.8 - 1.2 - Cloudy 10 - - - -
05/01:30am 16.0 ENE 11 14 1000.1 - 1.2 - Cloudy 10 - - - -
05/01:00am 16.0 ENE 10 13 1000.7 - 1.2 - Cloudy 10 - - - -
05/12:30am 16.1 ENE 9 11 1001.8 - 1.2 - Partly cloudy 10 - - - -
05/12:00am 16.3 ENE 8 9 1002.4 - 1.2 Drizzle Cloudy 10 - - - -
 
Date/Time
EDT
Temp
°C
Wind Pressure Rain since
9am
mm
Weather Cloud Vis
km
Sea
Height
m
Swell
Dir  Spd
kts
Gust
kts
hPa Trend Height
m
Period
s
Dir
04/11:30pm 16.3 ENE 9 10 1003.0 - 1.2 - Partly cloudy 10 - - - -
04/11:00pm 16.6 NE 8 11 1004.6 - 1.0 - Partly cloudy 10 - - - -
04/10:30pm 16.9 NE 6 8 1005.0 - 0.6 - Partly cloudy 10 - - - -
04/10:00pm 17.2 ENE 5 8 1005.4 - 0.4 - Partly cloudy 10 - - - -
04/09:30pm 17.3 NE 5 7 1005.6 - 0.2 - Partly cloudy 10 - - - -
04/09:00pm 17.0 NE 6 8 1005.7 - 0.0 Drizzle Cloudy 10 - - - -
04/08:30pm 16.9 NE 7 8 1005.5 - 0.0 - Partly cloudy 10 - - - -
04/08:00pm 17.2 NE 8 11 1005.6 - 0.0 - Partly cloudy 10 - - - -
04/07:30pm 17.4 NE 9 11 1006.0 - 0.0 - Cloudy 10 - - - -
04/07:00pm 17.5 NE 6 9 1006.6 - 0.0 - Partly cloudy 10 - - - -
04/06:30pm 18.0 ENE 7 11 1006.9 - 0.0 - Partly cloudy 10 - - - -
04/06:00pm 17.7 NE 6 8 1007.4 - 0.0 - Cloudy 10 - - - -
04/05:30pm 17.8 N 4 6 1008.0 - 0.0 - Cloudy 10 - - - -
04/05:00pm 18.0 NNE 7 10 1008.2 - 0.0 - Cloudy 10 - - - -
04/04:30pm 18.0 N 7 9 1008.7 - 0.0 - Partly cloudy 10 - - - -
04/04:00pm 18.0 NNE 8 11 1008.9 - 0.0 - - 10 - - - -
04/03:30pm 18.6 NE 10 13 1009.1 - 0.0 - - 10 - - - -
04/03:00pm 17.9 NNE 8 13 1009.6 - 0.0 - Mostly clear 10 - - - -
04/02:30pm 18.0 NNE 8 10 1010.3 - 0.0 - - 10 - - - -
04/02:00pm 17.7 NE 7 11 1010.7 - 0.0 - - 10 - - - -
04/01:30pm 17.3 NE 9 11 1011.2 - 0.0 - - 10 - - - -
04/01:00pm 17.8 NE 9 12 1011.8 - 0.0 - - 10 - - - -
04/12:30pm 17.1 NNE 10 11 1012.5 - 0.0 - - 10 - - - -
04/12:00pm 18.0 NE 7 9 1013.1 - 0.0 - Mostly clear 10 - - - -
04/11:30am 17.3 NE 8 11 1013.3 - 0.0 - Partly cloudy 10 - - - -
04/11:00am 17.1 NE 8 10 1013.4 - 0.0 - Partly cloudy 10 - - - -
04/10:30am 17.0 NNE 7 10 1014.1 - 0.0 - Partly cloudy 10 - - - -
04/10:00am 16.6 ENE 6 10 1014.0 - 0.0 - Partly cloudy 10 - - - -
04/09:30am 15.6 E 6 11 1014.4 - 0.0 - - 10 - - - -
04/09:00am 14.9 ENE 7 9 1014.6 - 0.0 - Mostly clear 10 - - - -
04/08:30am 14.8 E 5 8 1014.9 - 0.0 - Partly cloudy 10 - - - -
04/08:00am 12.9 SSE 6 8 1014.4 - 0.0 - Partly cloudy 10 - - - -
04/07:30am 11.3 S 6 7 1014.6 - 0.0 - Partly cloudy 10 - - - -
04/07:00am 9.8 SSE 7 9 1014.7 - 0.0 - - 10 - - - -
04/06:30am 8.5 SSE 9 11 1014.8 - 0.0 - - 10 - - - -
04/06:00am 7.7 SSE 8 9 1014.8 - 0.0 - - - - - - -
04/05:30am 7.6 SSE 8 9 1014.4 - 0.0 - - 10 - - - -
04/05:00am 7.7 SSE 8 9 1014.1 - 0.0 - - 10 - - - -
04/04:30am 8.5 SSE 8 10 1014.1 - 0.0 - - 10 - - - -
04/04:00am 8.3 SSE 5 8 1014.0 - 0.0 - - 10 - - - -
04/03:30am 8.6 ESE 4 6 1014.2 - 0.0 - - 10 - - - -
04/03:00am 8.2 S 7 9 1014.1 - 0.0 - - 10 - - - -
04/02:30am 8.7 S 6 8 1014.3 - 0.0 - - 10 - - - -
04/02:00am 8.4 SSE 7 9 1014.5 - 0.0 - - - - - - -
04/01:30am 8.5 SSE 6 7 1014.9 - 0.0 - - 10 - - - -
04/01:00am 9.0 S 7 8 1015.1 - 0.0 - - 10 - - - -
04/12:30am 9.2 S 6 8 1015.1 - 0.0 - - 10 - - - -
04/12:00am 9.6 S 5 7 1015.2 - 0.0 - - 10 - - - -
 
Date/Time
EDT
Temp
°C
Wind Pressure Rain since
9am
mm
Weather Cloud Vis
km
Sea
Height
m
Swell
Dir  Spd
kts
Gust
kts
hPa Trend Height
m
Period
s
Dir
03/11:30pm 10.2 S 7 8 1015.3 - 0.0 - - 10 - - - -
03/11:00pm 11.0 SSW 4 5 1015.3 - 0.0 - - 10 - - - -
03/10:30pm 11.2 SSW 3 4 1015.0 - 0.0 - - 10 - - - -
03/10:00pm 13.0 SW 5 6 1015.0 - 0.0 - - 10 - - - -
03/09:30pm 13.5 W 7 10 1014.7 - 0.0 - - 10 - - - -
03/09:00pm 14.2 W 10 13 1014.7 - 0.0 - - 10 - - - -
03/08:30pm 14.3 NW 12 17 1014.7 - 0.0 - - 10 - - - -
03/08:00pm 14.5 NW 15 21 1014.6 - 0.0 - - 10 - - - -
03/07:30pm 14.9 NW 16 21 1014.5 - 0.0 - - 10 - - - -
03/07:00pm 15.2 NW 15 21 1014.6 - 0.0 - - 10 - - - -
03/06:30pm 15.7 NW 15 21 1014.3 - 0.0 - - 10 - - - -
03/06:00pm 15.6 NW 18 23 1014.1 - 0.0 - - 10 - - - -
03/05:30pm 15.6 NW 17 20 1014.1 - 0.0 - - 10 - - - -
03/05:00pm 16.1 NW 15 20 1014.3 - 0.0 - - 10 - - - -
03/04:30pm 16.5 NW 16 20 1014.5 - 0.0 - - 10 - - - -
03/04:00pm 15.9 NW 16 21 1014.6 - 0.0 - Partly cloudy 10 - - - -
03/03:30pm 16.4 NW 17 20 1014.5 - 0.0 - - 10 - - - -
03/03:00pm 16.2 NW 19 23 1014.9 - 0.0 - Partly cloudy 10 - - - -
03/02:30pm 16.1 NW 17 21 1014.9 - 0.0 - Partly cloudy 10 - - - -
03/02:00pm 16.7 NW 18 22 1014.8 - 0.0 - Cloudy 10 - - - -

Other Formats:

Comma delimited format used in spreadsheet applications
http://www.bom.gov.au/fwo/IDV60701/IDV60701.95960.axf

JavaScript Object Notation format (JSON) in row-major order
http://www.bom.gov.au/fwo/IDV60701/IDV60701.95960.json